Ana Sayfa
METAR-TAF:

METAR-TAF

Havaalanları :

Nueces County Airport

Robstown, Teksas, Amerika Birleşik Devletleri

Enlem: 27-46-42N, Boylam: 097-41-25W, yükseklik: 24 m

Güncel hava durumu gözlemi

Rapor saat 08:15 UTC de 28 dakika önce yapıldı.
Rüzgar güneydoğudan 7 kt
Sıcaklık 17°C
Nem 77%
Basınç 1020 hPa
Görüş mesafesi: 16.1 km
4200 ft yükseklikte çok bulutlu

METAR: KRBO 230815Z AUTO 13007KT 10SM OVC042 17/13 A3013 RMK AO2 T01670130

Saat: 02:43 (08:43 UTC)


TAF: eksik

4.000'den fazla havaalanı için hava durumu gözlemleri ve tahminleri (METAR ve TAF raporları).

Kullanılabilir istasyonlar harita üzerinde sarı ve kırmızı noktalarla gösterilir.

İstasyonun adını görmek için fareyi noktanın üzerinde gezdirin.

Sonrasında hava gözlem ve tahminlerini görmek için tıklayın.

Haritayı değiştirmek için: yaklaştırmak için siyah artı işaretli yeşil düğmeye ve uzaklaştırmak için de eksi işaretli düğmeye hızla tıklayın; bitişik haritalar için yeşil okları kullanın.


METAR-TAF: